Kish Island, Iran

9:52 PM IRST on February 25, 2017 (GMT +0330)
Kish | | Change Station

Elev 98 ft 26.53 °N, 53.98 °E | Updated 22 minutes ago

Partly Cloudy
Partly Cloudy
70 °F
Feels Like 70 °F
N
7
Wind Variable Wind from NNE

Today
High -- | Low -- °F
--% Chance of Precip.
Yesterday
High -- | Low -- °F
Precip. -- in
Pressure 30.09 in
Visibility 3.1 miles
Clouds Scattered Clouds 3500 ft
Scattered Clouds 9000 ft
Dew Point 63 °F
Humidity 78%
Rainfall 0.00 in
Snow Depth Not available.
6:21 AM 5:52 PM
Waning Crescent, 1% visible
METAR OIBK 251800Z 02006KT 5000 BR SCT035 SCT090 21/17 Q1019
Pressure 30.09 in
Visibility 3.1 miles
Clouds Scattered Clouds 3500 ft
Scattered Clouds 9000 ft
Dew Point 63 °F
Humidity 78%
Rainfall 0.00 in
Snow Depth Not available.
6:21 AM 5:52 PM
Waning Crescent, 1% visible
METAR OIBK 251800Z 02006KT 5000 BR SCT035 SCT090 21/17 Q1019

Get Your Daily Forecast Email!

Thanks for signing up!

Be on the lookout for a verification email in your inbox.

You'll start receiving the daily forecast at 8 AM.

×

10-Day Weather Forecast

No radar image for this location.
×

Almanac

Astronomy

Feb. 25, 2017 Rise Set
Actual Time
Civil Twilight
Nautical Twilight
Astronomical Twilight
Moon
Length of Visible Light
Length of Day
Tomorrow will be .
, % of the Moon is Illuminated

Today's Extremes

Country Highs Country Lows

Community

WunderPhotos

Upload Photos

1,962,540 photos uploaded!

WunderBlog® & News

Nearby

Air Quality

  Air Quality AQ Index Pollutant
Not available.

Snow Depth

Station Depth Elevation

Earthquake Activity

City Distance Mag. Time & Date
Minimum magnitude displayed is 2.5.

Coastal Water Temperatures

Place Temperature

Stations

Nearby Weather Stations

Station Location Temp. Windchill Dew Point Humidity Wind Precip. Elev Updated Type